AirNav   Air Wisconsin pilot careers
 
 582 users online  

AL41 Freedom Field Airport
Slocomb, Alabama, USA

GOING TO SLOCOMB?


FAA INFORMATION EFFECTIVE 31 JANUARY 2019

Location

FAA Identifier: AL41
Lat/Long: 31-06-57.6380N / 085-37-31.7600W
31-06.960633N / 085-37.529333W
31.1160106 / -85.6254889
(estimated)
Elevation: 285 ft. / 87 m (estimated)
Variation: 00W (1985)
From city: 1 mile WNW of SLOCOMB, AL
Time zone: UTC -6 (UTC -5 during Daylight Saving Time)
Zip code: 36375

Airport Operations

Airport use: Private use. Permission required prior to landing
Activation date: 01/1983
Control tower: no
ARTCC: JACKSONVILLE CENTER
FSS: ANNISTON FLIGHT SERVICE STATION
Attendance: MON-SAT 0800-1700, ALL SUN 1200-1700
Wind indicator: lighted
Segmented circle: no
Lights: FOR MIRL RY 10/28 CALL 334-796-8886
Beacon: yellow (unlighted seaplane base)
Operates sunset to sunrise.

Airport Communications

WX ASOS at DHN (15 nm NE): PHONE 334-983-5999
WX AWOS-3PT at EDN (18 nm NW): 118.9 (334-347-3524)

Nearby radio navigation aids

VOR radial/distance  VOR name  Freq  Var
OZRr154/10.5CAIRNS VOR/DME111.2003W
RRSr223/14.2WIREGRASS VORTAC111.6002E
HEYr178/(15.6)HANCHEY VOR110.6003W
EDNr130/(17.9)ENTERPRISE VOR116.6003W
MAIr308/32.5MARIANNA VORTAC114.0000E

 
NDB name  Hdg/Dist  Freq  Var  ID
RUCKR127/11.821203WOZ --- --..
HANCHEY178/15.722103WHYE .... -.-- .
LOWE161/15.926903WLOR .-.. --- .-.
BOLL WEEVIL129/22.735203WBVG -... ...- --.
SOYYA307/25.332902WSMY ... -- -.--

Airport Services

Runway Information

Runway 10/28

Dimensions: 3300 x 90 ft. / 1006 x 27 m
Surface: turf
Runway edge lights: medium intensity
RUNWAY 10  RUNWAY 28
Traffic pattern: leftright
Markings: none
Obstructions: none450 ft. tower, 2640 ft. from runway

Airport Ownership and Management from official FAA records

Ownership: Privately-owned
Owner: HOWARD P. CULBRETH, JR.
500 WOODLAND DR
DOTHAN, AL 36301
Phone 334-793-4855
WORK PHONE NUMBER 334-796-8886
Manager: HOWARD CULBRETH
517 AIRPORT RD
SLOCOMB, AL 36375
Phone 334-796-8886

Airport Operational Statistics

Aircraft based on the field: 27
Single engine airplanes: 20
Multi engine airplanes: 2
Ultralights: 5
    

Instrument Procedures

There are no published instrument procedures at AL41.

Some nearby airports with instrument procedures:

KOZR - Cairns Army Airfield (Fort Rucker) (11 nm NW)
33J - Geneva Municipal Airport (13 nm W)
KHEY - Hanchey Army Heliport (Fort Rucker) (14 nm N)
KDHN - Dothan Regional Airport (15 nm NE)
KLOR - Lowe Army Heliport (Fort Rucker) (16 nm NW)
1J0 - Tri-County Airport (16 nm S)
KEDN - Enterprise Municipal Airport (18 nm NW)
71J - Ozark-Blackwell Field Airport (19 nm N)
 
Loc | Ops | Rwys | IFR | FBO | Links
Com | Nav | Svcs | Stats | Notes
Area around AL41 (Freedom Field Airport)
 
Road maps at: MapQuest Bing Google
 
Aerial photo
WARNING: Photo may not be current or correct
Aerial photo of AL41 (Freedom Field Airport)
Photo taken 14-Feb-2005

Do you have a better or more recent aerial photo of Freedom Field Airport that you would like to share? If so, please send us your photo.

 
Sectional chart

 
Airport distance calculator
Flying to Freedom Field Airport? Find the distance to fly.

From to AL41

Sunrise and sunset
Times for 22-Feb-2019
 Local
(UTC-6)
 Zulu
(UTC)
Morning civil twilight05:5311:53
Sunrise06:1812:18
Sunset17:3423:34
Evening civil twilight17:5923:59

Current date and time
Zulu (UTC)  23-Feb-2019 04:59:46
Local (UTC-6)  22-Feb-2019 22:59:46
 
METAR
KOZR 
11nm NW 
230356Z AUTO 15003KT 10SM OVC100 20/19 A3013 RMK AO2 SLP203 T01990189
KHEY 
14nm N 
230438Z AUTO 00000KT 10SM BKN013 OVC100 20/20 A3012 RMK AO2 CIG 013V100 BKN V FEW SLP200
KDHN 
15nm NE 
230453Z AUTO 17004KT 10SM OVC100 19/17 A3016 RMK AO2 SLP209 T01940172 402670189
KLOR 
15nm NW 
230451Z AUTO 00000KT 10SM -RA BKN014 OVC100 20/19 A3013 RMK AO2 RAB36 CIG 014V100 BKN V SCT SLP184
KEDN 
18nm NW 
230455Z AUTO 18003KT 10SM OVC013 20/20 A3013 RMK AO2 T01980198 402580191
KSXS 
19nm NW 
230448Z AUTO 20004KT 10SM BKN014 OVC100 20/19 A3012 RMK AO2 CIG 014V100 BKN V FEW SLP199
TAF
KOZR 
11nm NW 
230000Z 2300/2406 15006KT 8000 BR BKN020 QNH3010INS BECMG 2303/2304 17005KT 0800 FG OVC005 510023 QNH3010INS BECMG 2315/2316 18012G18KT 9999 NSW FEW013 BKN025 WS020/18031KT 510013 QNH3007INS BECMG 2317/2318 19015G20KT 9999 SCT016 510013 QNH3002INS BECMG 2323/2324 18009KT 9999 BKN016 510013 QNH3002INS BECMG 2403/2404 18009KT 8000 BR OVC001 510203 QNH3000INS TX28/2300Z TN19/2313Z LAST NO AMDS AFT 2307 NEXT 2312
KDHN 
15nm NE 
221735Z 2218/2318 18008KT P6SM OVC015 FM222000 18010KT P6SM BKN050 FM230800 VRB04KT 1SM BR BKN003 FM231500 13005KT P6SM OVC100
NOTAMs
Click for the latest NOTAMs
NOTAMs are issued by the DoD/FAA and will open in a separate window not controlled by AirNav.

 

 
 

Would you like to see your business listed on this page?

 If your business provides an interesting product or service to pilots, flight crews, aircraft, or users of the Freedom Field Airport, you should consider listing it here.  To start the listing process, click on the button below
 
Add a business
 

Other Pages about Freedom Field Airport

Update a link
 
Copyright © AirNav, LLC. All rights reserved. Privacy Policy  Contact